オスロ の空港の天気 - METARとTAF

オスロ空港 ( ENGM / OSL ) - ノルウェー アーケシュフース県オスロ
飛行場実況気象(Metar)
観測時間06/17 21:20 CEST (06/17 19:20 UTC)
風向・風速南南西 9m/s
視程10km以上
天気現象
少しの雲 雲底高度 520m
全天の4割程度の雲 雲底高度 910m
気温15℃
湿度77%
気圧1014hPa
METARENGM 171920Z 20017KT 9999 FEW017 SCT030 15/11 Q1014 NOSIG
過去の天気等 Google飛行場航空写真 Wunderground天気予報

過去48時間のMETAR

飛行場予報(TAF)
発表時間: -
18日0時 CEST から 確率 40% で
全天の8割程度の雲 雲底高度 240m
18日17時 CEST ~ 18日20時 CEST に一時的に
少しの積乱雲 雲底高度 910m
TAF ENGM 1718/1818 19012KT 9999 FEW020
PROB40 1722/1809 BKN008
TEMPO 1815/1818 FEW030CB